Terminal Aerodrome Forecast
Issued by NWS Twin Cities, MN

Home | Current Version | Previous Version | Graphics & Text | Print | Product List | Glossary On
Versions: 1 2 3 4 5 6 7 8 9 10 11 12 13 14 15 16
000
FTUS43 KMPX 282300
TAFEAU
TAF
KEAU 282339Z 2900/2924 26013G22KT P6SM SCT030 OVC045
      TEMPO 2900/2902 -SHRA BKN030 OVC040
     FM290200 28011KT P6SM SCT030 OVC045
     FM290800 30010KT P6SM SCT011 OVC018
     FM291600 30008KT P6SM OVC025
     FM292100 28007KT P6SM BKN035=

USA.gov is the U.S. government's official web portal to all federal, state and local government web resources and services.